createdAt,value
2023-05-23T00:01:43.236Z,45.82
2023-05-23T00:04:10.838Z,45.67
2023-05-23T00:06:38.821Z,45.75
2023-05-23T00:09:06.120Z,45.59
2023-05-23T00:11:33.125Z,45.74
2023-05-23T00:14:01.303Z,45.77
2023-05-23T00:16:28.500Z,45.94
2023-05-23T00:18:57.607Z,46.09
2023-05-23T00:21:24.686Z,45.80
2023-05-23T00:23:51.716Z,45.86
2023-05-23T00:26:18.667Z,46.01
2023-05-23T00:28:46.788Z,46.08
2023-05-23T00:31:13.739Z,46.17
2023-05-23T00:33:40.820Z,46.13
2023-05-23T00:36:07.794Z,46.34
2023-05-23T00:38:34.709Z,46.42
2023-05-23T00:41:02.559Z,46.01
2023-05-23T00:43:29.566Z,46.06
2023-05-23T00:45:56.575Z,46.43
2023-05-23T00:48:25.683Z,46.70
2023-05-23T00:50:53.972Z,46.65
2023-05-23T00:53:21.726Z,46.61
2023-05-23T00:55:48.910Z,46.24
2023-05-23T00:58:17.694Z,46.39
2023-05-23T01:00:50.368Z,46.51
2023-05-23T01:03:18.920Z,46.46
2023-05-23T01:05:45.978Z,46.76
2023-05-23T01:08:13.178Z,46.81
2023-05-23T01:10:40.229Z,46.54
2023-05-23T01:13:24.419Z,46.72
2023-05-23T01:16:19.747Z,46.91
2023-05-23T01:19:04.780Z,46.86
2023-05-23T01:21:32.520Z,46.95
2023-05-23T01:24:19.488Z,46.89
2023-05-23T01:27:06.170Z,47.22
2023-05-23T01:29:38.992Z,47.01
2023-05-23T01:32:11.605Z,47.05
2023-05-23T01:34:40.351Z,47.21
2023-05-23T01:37:11.831Z,47.20
2023-05-23T01:39:39.102Z,47.41
2023-05-23T01:42:06.936Z,47.31
2023-05-23T01:44:36.374Z,47.79
2023-05-23T01:47:04.551Z,47.42
2023-05-23T01:49:32.549Z,47.54
2023-05-23T01:52:01.861Z,47.88
2023-05-23T01:54:30.571Z,47.44
2023-05-23T01:56:58.280Z,47.76
2023-05-23T01:59:25.510Z,47.55
2023-05-23T02:01:53.670Z,47.44
2023-05-23T02:04:21.722Z,47.81
2023-05-23T02:06:48.650Z,48.09
2023-05-23T02:09:15.713Z,48.09
2023-05-23T02:11:42.668Z,48.07
2023-05-23T02:14:11.170Z,48.42
2023-05-23T02:16:38.221Z,48.61
2023-05-23T02:19:05.253Z,48.69
2023-05-23T02:21:34.834Z,48.90
2023-05-23T02:24:03.710Z,48.33
2023-05-23T02:26:30.699Z,48.83
2023-05-23T02:28:57.622Z,48.59
2023-05-23T02:31:25.180Z,49.04
2023-05-23T02:33:52.137Z,49.19
2023-05-23T02:36:19.181Z,48.40
2023-05-23T02:38:46.145Z,49.24
2023-05-23T02:41:13.064Z,49.11
2023-05-23T02:43:40.006Z,48.77
2023-05-23T02:46:07.152Z,49.17
2023-05-23T02:48:34.114Z,49.28
2023-05-23T02:51:01.210Z,49.30
2023-05-23T02:53:28.262Z,49.71
2023-05-23T02:55:55.642Z,49.79
2023-05-23T02:58:22.804Z,49.42
2023-05-23T03:00:49.758Z,50.05
2023-05-23T03:03:17.697Z,50.11
2023-05-23T03:05:44.864Z,50.71
2023-05-23T03:08:12.190Z,50.60
2023-05-23T03:10:40.299Z,50.14
2023-05-23T03:13:07.397Z,50.17
2023-05-23T03:15:35.557Z,49.96
2023-05-23T03:18:02.851Z,50.01
2023-05-23T03:20:32.133Z,49.81
2023-05-23T03:22:59.161Z,49.91
2023-05-23T03:25:26.251Z,49.95
2023-05-23T03:27:54.788Z,50.00
2023-05-23T03:30:22.169Z,49.99
2023-05-23T03:32:50.046Z,50.05
2023-05-23T03:35:17.324Z,50.14
2023-05-23T03:37:44.420Z,50.20
2023-05-23T03:40:11.496Z,50.41
2023-05-23T03:42:40.046Z,50.19
2023-05-23T03:45:09.127Z,50.08
2023-05-23T03:47:36.545Z,49.98
2023-05-23T03:50:03.832Z,50.29
2023-05-23T03:52:31.425Z,50.13
2023-05-23T03:54:58.521Z,50.38
2023-05-23T03:57:25.593Z,50.45
2023-05-23T03:59:53.036Z,50.06
2023-05-23T04:02:22.551Z,50.54
2023-05-23T04:04:49.638Z,50.21
2023-05-23T04:07:16.789Z,50.51
2023-05-23T04:09:44.920Z,50.79
2023-05-23T04:12:13.504Z,50.90
2023-05-23T04:14:40.570Z,50.55
2023-05-23T04:17:09.212Z,51.27
2023-05-23T04:19:36.716Z,51.33
2023-05-23T04:22:03.777Z,51.46
2023-05-23T04:24:31.029Z,51.09
2023-05-23T04:26:59.350Z,50.78
2023-05-23T04:29:26.568Z,50.90
2023-05-23T04:31:54.984Z,51.47
2023-05-23T04:34:22.476Z,51.66
2023-05-23T04:36:49.788Z,50.94
2023-05-23T04:39:17.118Z,51.38
2023-05-23T04:42:00.560Z,50.95
2023-05-23T04:44:45.769Z,51.40
2023-05-23T04:47:19.067Z,51.16
2023-05-23T04:49:57.596Z,50.79
2023-05-23T04:52:25.480Z,51.05
2023-05-23T04:54:54.068Z,50.89
2023-05-23T04:57:22.071Z,50.86
2023-05-23T04:59:49.174Z,50.54
2023-05-23T05:02:16.175Z,50.36
2023-05-23T05:04:43.083Z,50.27
2023-05-23T05:07:10.842Z,50.60
2023-05-23T05:09:37.771Z,50.83
2023-05-23T05:12:04.985Z,50.29
2023-05-23T05:14:31.909Z,50.27
2023-05-23T05:17:00.052Z,50.43
2023-05-23T05:19:34.415Z,50.24
2023-05-23T05:22:01.496Z,50.47
2023-05-23T05:24:29.850Z,50.37
2023-05-23T05:26:57.554Z,50.48
2023-05-23T05:29:25.295Z,50.66
2023-05-23T05:31:53.407Z,50.17
2023-05-23T05:34:20.873Z,50.46
2023-05-23T05:36:48.312Z,50.60
2023-05-23T05:39:17.721Z,50.04
2023-05-23T05:41:44.777Z,50.03
2023-05-23T05:44:11.811Z,50.18
2023-05-23T05:46:39.077Z,50.21
2023-05-23T05:49:06.036Z,50.62
2023-05-23T05:51:32.984Z,50.65
2023-05-23T05:54:00.152Z,50.67
2023-05-23T05:56:27.886Z,50.45
2023-05-23T05:58:54.855Z,50.17
2023-05-23T06:01:22.469Z,49.99
2023-05-23T06:03:49.651Z,49.79
2023-05-23T06:06:18.069Z,49.71
2023-05-23T06:08:45.204Z,49.38
2023-05-23T06:11:16.273Z,49.41
2023-05-23T06:13:43.203Z,49.40
2023-05-23T06:16:10.538Z,49.19
2023-05-23T06:18:37.556Z,49.09
2023-05-23T06:21:04.568Z,48.97
2023-05-23T06:23:33.185Z,48.81
2023-05-23T06:26:00.130Z,48.79
2023-05-23T06:28:27.333Z,48.71
2023-05-23T06:30:54.251Z,48.35
2023-05-23T06:33:21.188Z,48.24
2023-05-23T06:35:49.229Z,48.09
2023-05-23T06:38:17.805Z,47.95
2023-05-23T06:40:45.087Z,48.12
2023-05-23T06:43:12.531Z,47.80
2023-05-23T06:45:47.742Z,48.08
2023-05-23T06:48:14.857Z,47.63
2023-05-23T06:50:42.496Z,47.47
2023-05-23T06:53:11.237Z,47.80
2023-05-23T06:55:38.386Z,47.76
2023-05-23T06:58:07.736Z,47.85
2023-05-23T07:00:36.861Z,47.64
2023-05-23T07:03:24.106Z,47.68
2023-05-23T07:05:51.911Z,47.62
2023-05-23T07:08:20.053Z,47.36
2023-05-23T07:10:59.566Z,47.40
2023-05-23T07:13:44.785Z,47.39
2023-05-23T07:16:19.699Z,47.35
2023-05-23T07:19:03.256Z,47.71
2023-05-23T07:21:31.713Z,47.84
2023-05-23T07:23:58.634Z,48.19
2023-05-23T07:26:27.362Z,48.00
2023-05-23T07:28:56.134Z,48.02
2023-05-23T07:31:23.414Z,48.27
2023-05-23T07:33:56.815Z,48.01
2023-05-23T07:36:34.132Z,48.10
2023-05-23T07:39:02.092Z,47.66
2023-05-23T07:41:29.052Z,47.37
2023-05-23T07:43:56.073Z,46.86
2023-05-23T07:46:23.136Z,46.58
2023-05-23T07:48:50.128Z,46.48
2023-05-23T07:51:19.314Z,45.61
2023-05-23T07:53:46.257Z,45.48
2023-05-23T07:56:13.967Z,45.50
2023-05-23T07:58:42.683Z,45.26
2023-05-23T08:01:09.712Z,45.48
2023-05-23T08:03:59.486Z,45.06
2023-05-23T08:06:38.641Z,44.88
2023-05-23T08:09:10.225Z,44.63
2023-05-23T08:11:42.418Z,44.60
2023-05-23T08:14:09.464Z,44.83
2023-05-23T08:16:39.209Z,44.93
2023-05-23T08:19:14.362Z,45.02
2023-05-23T08:21:42.473Z,44.37
2023-05-23T08:24:09.445Z,44.36
2023-05-23T08:26:39.445Z,44.56
2023-05-23T08:29:10.620Z,44.25
2023-05-23T08:31:37.930Z,44.09
2023-05-23T08:34:06.864Z,43.84
2023-05-23T08:36:36.721Z,43.70
2023-05-23T08:39:05.405Z,43.54
2023-05-23T08:41:36.869Z,43.79
2023-05-23T08:44:08.989Z,43.50
2023-05-23T08:46:46.728Z,43.75
2023-05-23T08:49:23.138Z,43.89
2023-05-23T08:51:55.961Z,43.63
2023-05-23T08:54:23.008Z,43.71
2023-05-23T08:56:52.231Z,43.99
2023-05-23T08:59:20.177Z,44.08
2023-05-23T09:01:48.636Z,43.85
2023-05-23T09:04:17.202Z,44.00
2023-05-23T09:06:57.556Z,43.69
2023-05-23T09:09:25.764Z,44.08
2023-05-23T09:11:54.456Z,43.98
2023-05-23T09:14:22.548Z,44.25
2023-05-23T09:16:52.132Z,43.93
2023-05-23T09:19:22.618Z,43.57
2023-05-23T09:21:55.985Z,43.92
2023-05-23T09:24:36.290Z,44.79
2023-05-23T09:27:07.276Z,44.30
2023-05-23T09:29:40.441Z,44.77
2023-05-23T09:32:21.359Z,44.90
2023-05-23T09:35:06.404Z,45.22
2023-05-23T09:37:35.791Z,45.04
2023-05-23T09:40:12.241Z,45.24
2023-05-23T09:42:45.099Z,44.68
2023-05-23T09:45:13.857Z,45.04
2023-05-23T09:47:51.079Z,45.04
2023-05-23T09:50:18.260Z,44.80
2023-05-23T09:52:46.489Z,45.35
2023-05-23T09:55:13.961Z,45.03
2023-05-23T09:57:43.228Z,45.26
2023-05-23T10:00:12.335Z,45.59
2023-05-23T10:03:15.109Z,44.92
2023-05-23T10:05:47.526Z,45.74
2023-05-23T10:08:40.294Z,45.83
2023-05-23T10:11:36.025Z,44.99
2023-05-23T10:14:09.572Z,44.88
2023-05-23T10:17:19.072Z,45.61
2023-05-23T10:19:56.677Z,45.09
2023-05-23T10:22:24.539Z,44.71
2023-05-23T10:24:51.654Z,44.89
2023-05-23T10:27:19.107Z,44.48
2023-05-23T10:29:46.881Z,44.35
2023-05-23T10:32:15.066Z,44.52
2023-05-23T10:35:09.876Z,43.92
2023-05-23T10:38:07.048Z,44.36
2023-05-23T10:41:07.012Z,43.87
2023-05-23T10:44:01.060Z,43.80
2023-05-23T10:46:52.771Z,43.55
2023-05-23T10:49:20.574Z,44.10
2023-05-23T10:51:52.349Z,43.70
2023-05-23T10:54:22.918Z,43.07
2023-05-23T10:57:04.453Z,43.21
2023-05-23T10:59:31.880Z,42.88
2023-05-23T11:02:01.379Z,41.83
2023-05-23T11:04:29.396Z,41.75
2023-05-23T11:06:57.634Z,41.79
2023-05-23T11:09:24.782Z,41.00
2023-05-23T11:11:54.587Z,41.44
2023-05-23T11:14:55.879Z,41.22
2023-05-23T11:17:33.670Z,41.81
2023-05-23T11:20:06.996Z,40.72
2023-05-23T11:22:35.070Z,39.88
2023-05-23T11:25:08.142Z,40.76
2023-05-23T11:27:40.946Z,39.89
2023-05-23T11:30:10.309Z,39.91
2023-05-23T11:32:37.861Z,40.47
2023-05-23T11:35:07.662Z,39.37
2023-05-23T11:37:36.111Z,39.38
2023-05-23T11:40:41.577Z,38.19
2023-05-23T11:43:11.887Z,38.15
2023-05-23T11:45:40.021Z,38.62
2023-05-23T11:48:08.370Z,39.31
2023-05-23T11:50:44.473Z,39.46
2023-05-23T11:53:11.775Z,39.39
2023-05-23T11:55:41.828Z,39.61
2023-05-23T11:58:10.351Z,39.46
2023-05-23T12:00:46.458Z,39.33
2023-05-23T12:03:13.693Z,39.06
2023-05-23T12:05:44.789Z,38.29
2023-05-23T12:08:14.508Z,38.43
2023-05-23T12:10:57.693Z,38.44
2023-05-23T12:13:26.247Z,38.71
2023-05-23T12:16:00.638Z,38.50
2023-05-23T12:18:32.277Z,38.36
2023-05-23T12:21:05.768Z,39.04
2023-05-23T12:23:34.992Z,38.53
2023-05-23T12:26:10.379Z,38.25
2023-05-23T12:28:43.556Z,37.96
2023-05-23T12:31:19.429Z,38.19
2023-05-23T12:33:48.593Z,38.26
2023-05-23T12:36:23.973Z,39.30
2023-05-23T12:38:50.969Z,39.09
2023-05-23T12:41:20.149Z,39.28
2023-05-23T12:43:55.232Z,39.37
2023-05-23T12:46:24.237Z,39.31
2023-05-23T12:48:51.536Z,39.43
2023-05-23T12:51:18.623Z,39.74
2023-05-23T12:53:45.644Z,39.88
2023-05-23T12:56:12.687Z,39.57
2023-05-23T12:58:39.662Z,39.27
2023-05-23T13:01:06.613Z,39.17
2023-05-23T13:03:33.662Z,39.36
2023-05-23T13:06:00.798Z,39.80
2023-05-23T13:08:27.847Z,40.04
2023-05-23T13:10:54.860Z,40.37
2023-05-23T13:13:22.488Z,40.87
2023-05-23T13:15:51.134Z,40.86
2023-05-23T13:18:18.815Z,41.49
2023-05-23T13:20:46.474Z,41.47
2023-05-23T13:23:13.611Z,42.37
2023-05-23T13:25:40.810Z,41.92
2023-05-23T13:28:07.926Z,41.71
2023-05-23T13:30:35.054Z,42.64
2023-05-23T13:33:02.408Z,42.81
2023-05-23T13:35:29.513Z,42.59
2023-05-23T13:37:56.422Z,43.36
2023-05-23T13:40:23.406Z,44.60
2023-05-23T13:42:51.608Z,44.85
2023-05-23T13:45:19.919Z,45.41
2023-05-23T13:47:47.289Z,44.89
2023-05-23T13:50:14.485Z,45.24
2023-05-23T13:52:44.927Z,45.25
2023-05-23T13:55:13.587Z,45.24
2023-05-23T13:57:40.626Z,45.33
2023-05-23T14:00:08.896Z,44.79
2023-05-23T14:02:36.052Z,44.55
2023-05-23T14:05:03.758Z,44.09
2023-05-23T14:07:31.370Z,43.69
2023-05-23T14:09:59.634Z,43.44
2023-05-23T14:12:26.630Z,43.86
2023-05-23T14:14:53.568Z,44.43
2023-05-23T14:17:20.662Z,44.18
2023-05-23T14:19:47.792Z,44.30
2023-05-23T14:22:14.776Z,44.68
2023-05-23T14:24:42.456Z,44.77
2023-05-23T14:27:11.117Z,44.89
2023-05-23T14:29:39.052Z,44.66
2023-05-23T14:32:06.540Z,44.87
2023-05-23T14:34:33.702Z,45.31
2023-05-23T14:37:01.387Z,45.84
2023-05-23T14:39:29.196Z,46.22
2023-05-23T14:41:56.622Z,46.22
2023-05-23T14:44:23.815Z,46.93
2023-05-23T14:46:50.923Z,47.30
2023-05-23T14:49:18.195Z,47.53
2023-05-23T14:51:50.402Z,48.16
2023-05-23T14:54:18.555Z,48.80
2023-05-23T14:56:45.643Z,49.28
2023-05-23T14:59:12.628Z,49.72
2023-05-23T15:01:40.673Z,50.50
2023-05-23T15:04:09.658Z,51.42
2023-05-23T15:06:38.855Z,51.52
2023-05-23T15:09:06.226Z,51.71
2023-05-23T15:11:34.987Z,52.32
2023-05-23T15:14:02.207Z,52.45
2023-05-23T15:16:32.914Z,52.54
2023-05-23T15:19:00.312Z,52.45
2023-05-23T15:21:27.631Z,52.81
2023-05-23T15:23:54.653Z,53.38
2023-05-23T15:26:22.533Z,53.06
2023-05-23T15:28:49.806Z,53.46
2023-05-23T15:31:16.860Z,53.67
2023-05-23T15:33:43.870Z,53.73
2023-05-23T15:36:13.050Z,53.77
2023-05-23T15:38:40.491Z,54.53
2023-05-23T15:41:07.473Z,54.55
2023-05-23T15:43:37.698Z,54.55
2023-05-23T15:46:05.454Z,54.82
2023-05-23T15:48:32.466Z,55.07
2023-05-23T15:50:59.411Z,55.40
2023-05-23T15:53:26.353Z,54.78
2023-05-23T15:55:53.257Z,55.65
2023-05-23T15:58:20.692Z,55.52
2023-05-23T16:00:47.657Z,55.59
2023-05-23T16:03:14.690Z,55.18
2023-05-23T16:05:41.837Z,55.86
2023-05-23T16:08:09.017Z,56.08
2023-05-23T16:10:36.026Z,56.78
2023-05-23T16:13:03.119Z,56.29
2023-05-23T16:15:30.126Z,57.01
2023-05-23T16:17:57.091Z,56.75
2023-05-23T16:20:24.143Z,56.59
2023-05-23T16:22:51.126Z,56.83
2023-05-23T16:25:18.087Z,56.93
2023-05-23T16:27:45.014Z,56.78
2023-05-23T16:30:12.170Z,56.82
2023-05-23T16:32:39.146Z,57.07
2023-05-23T16:35:06.650Z,57.06
2023-05-23T16:37:33.584Z,56.72
2023-05-23T16:40:00.690Z,56.99
2023-05-23T16:42:27.768Z,57.11
2023-05-23T16:44:54.882Z,56.92
2023-05-23T16:47:21.867Z,57.38
2023-05-23T16:49:48.843Z,57.24
2023-05-23T16:52:16.745Z,56.81
2023-05-23T16:54:43.854Z,56.73
2023-05-23T16:57:11.650Z,56.71
2023-05-23T16:59:38.619Z,56.96
2023-05-23T17:02:05.531Z,56.93
2023-05-23T17:04:32.478Z,56.49
2023-05-23T17:06:59.404Z,56.48
2023-05-23T17:09:26.461Z,56.60
2023-05-23T17:11:53.479Z,56.84
2023-05-23T17:14:20.792Z,56.59
2023-05-23T17:16:47.732Z,56.76
2023-05-23T17:19:14.702Z,56.68
2023-05-23T17:21:41.820Z,56.34
2023-05-23T17:24:08.746Z,56.31
2023-05-23T17:26:35.689Z,56.40
2023-05-23T17:29:02.630Z,56.48
2023-05-23T17:31:30.818Z,56.41
2023-05-23T17:33:58.126Z,56.84
2023-05-23T17:36:25.097Z,56.86
2023-05-23T17:38:54.667Z,56.44
2023-05-23T17:41:24.895Z,56.56
2023-05-23T17:43:51.840Z,56.02
2023-05-23T17:46:18.818Z,56.21
2023-05-23T17:48:47.984Z,56.53
2023-05-23T17:51:15.955Z,56.16
2023-05-23T17:53:43.288Z,55.93
2023-05-23T17:56:10.420Z,56.42
2023-05-23T17:58:38.541Z,56.03
2023-05-23T18:01:06.940Z,56.17
2023-05-23T18:03:34.056Z,56.44
2023-05-23T18:06:01.077Z,56.32
2023-05-23T18:08:28.055Z,56.02
2023-05-23T18:10:55.325Z,55.94
2023-05-23T18:13:22.449Z,55.78
2023-05-23T18:15:49.438Z,55.80
2023-05-23T18:18:17.921Z,56.23
2023-05-23T18:20:44.996Z,55.73
2023-05-23T18:23:12.122Z,55.93
2023-05-23T18:25:39.123Z,55.74
2023-05-23T18:28:06.055Z,55.69
2023-05-23T18:30:33.613Z,55.35
2023-05-23T18:33:01.134Z,55.22
2023-05-23T18:35:28.355Z,54.80
2023-05-23T18:37:55.409Z,55.15
2023-05-23T18:40:23.982Z,54.93
2023-05-23T18:42:51.092Z,54.72
2023-05-23T18:45:18.201Z,54.03
2023-05-23T18:47:45.225Z,52.48
2023-05-23T18:50:13.344Z,52.48
2023-05-23T18:52:40.829Z,51.89
2023-05-23T18:55:08.635Z,51.23
2023-05-23T18:57:35.640Z,51.37
2023-05-23T19:00:04.424Z,50.89
2023-05-23T19:02:31.555Z,50.84
2023-05-23T19:04:58.902Z,50.61
2023-05-23T19:07:25.845Z,50.57
2023-05-23T19:09:52.842Z,50.54
2023-05-23T19:12:19.923Z,51.08
2023-05-23T19:14:47.112Z,51.25
2023-05-23T19:17:14.049Z,51.19
2023-05-23T19:19:41.150Z,51.08
2023-05-23T19:22:08.203Z,51.03
2023-05-23T19:24:35.158Z,51.41
2023-05-23T19:27:02.469Z,51.24
2023-05-23T19:29:29.495Z,50.95
2023-05-23T19:31:58.264Z,50.95
2023-05-23T19:34:25.313Z,51.03
2023-05-23T19:36:52.280Z,51.22
2023-05-23T19:39:19.309Z,51.28
2023-05-23T19:41:46.356Z,51.28
2023-05-23T19:44:13.612Z,50.60
2023-05-23T19:46:40.551Z,50.96
2023-05-23T19:49:10.635Z,50.65
2023-05-23T19:51:37.814Z,50.39
2023-05-23T19:54:04.867Z,50.42
2023-05-23T19:56:32.451Z,50.54
2023-05-23T19:58:59.362Z,50.71
2023-05-23T20:01:27.426Z,50.39
2023-05-23T20:03:54.620Z,50.79
2023-05-23T20:06:22.143Z,50.55
2023-05-23T20:08:49.127Z,50.86
2023-05-23T20:11:16.313Z,50.78
2023-05-23T20:13:43.249Z,50.66
2023-05-23T20:16:10.359Z,50.78
2023-05-23T20:18:37.331Z,50.77
2023-05-23T20:21:05.322Z,51.01
2023-05-23T20:23:32.681Z,51.03
2023-05-23T20:26:00.395Z,50.76
2023-05-23T20:28:27.638Z,50.65
2023-05-23T20:30:54.593Z,50.78
2023-05-23T20:33:21.943Z,50.78
2023-05-23T20:35:48.957Z,50.73
2023-05-23T20:38:18.561Z,50.99
2023-05-23T20:40:46.349Z,50.80
2023-05-23T20:43:15.040Z,51.09
2023-05-23T20:45:42.272Z,50.90
2023-05-23T20:48:09.482Z,51.03
2023-05-23T20:50:36.637Z,51.05
2023-05-23T20:53:03.710Z,51.16
2023-05-23T20:55:30.632Z,51.12
2023-05-23T20:57:57.561Z,51.24
2023-05-23T21:00:24.560Z,51.53
2023-05-23T21:02:51.619Z,51.48
2023-05-23T21:05:18.660Z,51.54
2023-05-23T21:07:45.642Z,51.58
2023-05-23T21:10:12.598Z,51.80
2023-05-23T21:12:39.571Z,52.00
2023-05-23T21:15:07.415Z,52.21
2023-05-23T21:17:34.395Z,52.18
2023-05-23T21:20:01.350Z,52.20
2023-05-23T21:22:28.260Z,52.29
2023-05-23T21:24:55.265Z,52.32
2023-05-23T21:27:22.183Z,52.49
2023-05-23T21:29:49.114Z,52.55
2023-05-23T21:32:16.192Z,52.78
2023-05-23T21:34:43.209Z,52.77
2023-05-23T21:37:10.232Z,53.01
2023-05-23T21:39:50.744Z,52.86
2023-05-23T21:42:19.951Z,53.14
2023-05-23T21:44:47.022Z,53.17
2023-05-23T21:47:14.029Z,53.07
2023-05-23T21:49:40.991Z,53.27
2023-05-23T21:52:08.001Z,53.29
2023-05-23T21:54:35.019Z,53.25
2023-05-23T21:57:02.073Z,53.58
2023-05-23T21:59:29.016Z,53.53
2023-05-23T22:01:56.208Z,53.76
2023-05-23T22:04:23.157Z,53.55
2023-05-23T22:06:50.094Z,53.72
2023-05-23T22:09:17.053Z,53.82
2023-05-23T22:11:44.031Z,53.98
2023-05-23T22:14:11.252Z,53.94
2023-05-23T22:16:39.363Z,53.83
2023-05-23T22:19:07.185Z,53.95
2023-05-23T22:21:34.157Z,53.95
2023-05-23T22:24:01.392Z,53.90
2023-05-23T22:26:28.427Z,54.11
2023-05-23T22:28:55.910Z,54.07
2023-05-23T22:31:24.185Z,54.19
2023-05-23T22:33:51.425Z,54.03
2023-05-23T22:36:18.414Z,54.12
2023-05-23T22:38:45.735Z,54.17
2023-05-23T22:41:12.822Z,54.20
2023-05-23T22:43:40.096Z,54.06
2023-05-23T22:46:07.634Z,54.22
2023-05-23T22:48:34.629Z,54.02
2023-05-23T22:51:02.667Z,54.02
2023-05-23T22:53:30.235Z,54.07
2023-05-23T22:55:57.545Z,54.10
2023-05-23T22:58:24.545Z,54.00
2023-05-23T23:00:51.873Z,54.06
2023-05-23T23:03:19.086Z,54.25
2023-05-23T23:05:46.446Z,54.17
2023-05-23T23:08:13.485Z,54.11
2023-05-23T23:10:41.792Z,54.20
2023-05-23T23:13:09.218Z,54.30
2023-05-23T23:15:36.695Z,54.31
2023-05-23T23:18:05.848Z,54.12
2023-05-23T23:20:33.255Z,54.15
2023-05-23T23:23:00.402Z,54.33
2023-05-23T23:25:27.354Z,54.19
2023-05-23T23:27:54.279Z,54.25
2023-05-23T23:30:21.371Z,54.40
2023-05-23T23:32:48.385Z,54.21
2023-05-23T23:35:15.738Z,54.47
2023-05-23T23:37:42.670Z,54.37
2023-05-23T23:40:10.669Z,54.31
2023-05-23T23:42:37.618Z,54.56
2023-05-23T23:45:05.863Z,54.56
2023-05-23T23:47:33.100Z,54.67
2023-05-23T23:50:00.089Z,54.77
2023-05-23T23:52:27.964Z,54.95
2023-05-23T23:54:55.139Z,55.03
2023-05-23T23:57:22.219Z,55.08
2023-05-23T23:59:49.167Z,55.05
